createdAt,value
2022-10-22T00:01:05.311Z,2.36
2022-10-22T00:03:32.425Z,2.51
2022-10-22T00:05:59.341Z,2.57
2022-10-22T00:08:26.095Z,2.52
2022-10-22T00:10:53.085Z,2.45
2022-10-22T00:13:20.612Z,2.13
2022-10-22T00:15:47.359Z,2.19
2022-10-22T00:18:14.330Z,2.17
2022-10-22T00:20:41.313Z,2.23
2022-10-22T00:23:08.041Z,2.12
2022-10-22T00:25:36.134Z,2.10
2022-10-22T00:28:03.817Z,2.03
2022-10-22T00:30:30.633Z,1.98
2022-10-22T00:32:57.348Z,2.03
2022-10-22T00:35:24.039Z,2.18
2022-10-22T00:37:50.802Z,2.26
2022-10-22T00:40:17.656Z,2.13
2022-10-22T00:42:44.873Z,1.90
2022-10-22T00:45:11.460Z,1.96
2022-10-22T00:47:42.647Z,1.96
2022-10-22T00:50:17.903Z,2.03
2022-10-22T00:52:44.830Z,2.12
2022-10-22T00:55:13.447Z,2.03
2022-10-22T00:57:41.136Z,2.00
2022-10-22T01:00:08.553Z,2.06
2022-10-22T01:02:35.850Z,2.02
2022-10-22T01:05:02.822Z,2.14
2022-10-22T01:07:29.471Z,2.21
2022-10-22T01:10:26.776Z,2.08
2022-10-22T01:13:10.440Z,2.13
2022-10-22T01:15:56.822Z,2.06
2022-10-22T01:18:27.295Z,1.97
2022-10-22T01:21:05.910Z,1.81
2022-10-22T01:23:35.514Z,1.69
2022-10-22T01:26:31.356Z,1.64
2022-10-22T01:28:57.926Z,1.58
2022-10-22T01:31:28.465Z,1.61
2022-10-22T01:33:55.443Z,1.66
2022-10-22T01:36:22.335Z,1.65
2022-10-22T01:38:50.560Z,1.69
2022-10-22T01:41:17.322Z,1.70
2022-10-22T01:43:44.054Z,1.54
2022-10-22T01:46:12.935Z,1.38
2022-10-22T01:48:51.663Z,1.42
2022-10-22T01:51:27.719Z,1.58
2022-10-22T01:54:00.706Z,1.70
2022-10-22T01:56:30.336Z,1.63
2022-10-22T01:59:18.801Z,1.52
2022-10-22T02:02:13.453Z,1.48
2022-10-22T02:04:58.295Z,1.38
2022-10-22T02:07:37.426Z,1.46
2022-10-22T02:10:07.599Z,1.53
2022-10-22T02:12:35.540Z,1.53
2022-10-22T02:15:03.819Z,1.48
2022-10-22T02:17:33.366Z,1.22
2022-10-22T02:20:12.969Z,1.26
2022-10-22T02:22:40.309Z,1.30
2022-10-22T02:25:08.130Z,1.23
2022-10-22T02:28:12.642Z,1.24
2022-10-22T02:30:42.674Z,1.34
2022-10-22T02:33:16.434Z,1.30
2022-10-22T02:35:43.802Z,1.31
2022-10-22T02:38:11.674Z,1.41
2022-10-22T02:40:38.533Z,1.52
2022-10-22T02:43:06.298Z,1.65
2022-10-22T02:45:34.670Z,1.61
2022-10-22T02:48:01.315Z,1.73
2022-10-22T02:50:27.974Z,1.61
2022-10-22T02:52:54.554Z,1.53
2022-10-22T02:55:21.734Z,1.39
2022-10-22T02:57:48.380Z,1.21
2022-10-22T03:00:15.396Z,1.18
2022-10-22T03:02:42.166Z,1.37
2022-10-22T03:05:09.317Z,1.50
2022-10-22T03:07:36.062Z,1.53
2022-10-22T03:10:03.187Z,1.29
2022-10-22T03:12:29.850Z,1.38
2022-10-22T03:14:56.478Z,1.30
2022-10-22T03:17:23.461Z,1.42
2022-10-22T03:19:50.128Z,1.54
2022-10-22T03:22:23.635Z,1.53
2022-10-22T03:24:54.382Z,1.41
2022-10-22T03:27:23.363Z,1.45
2022-10-22T03:29:52.611Z,1.27
2022-10-22T03:32:19.446Z,1.25
2022-10-22T03:34:46.123Z,1.09
2022-10-22T03:37:12.962Z,1.17
2022-10-22T03:39:40.262Z,1.26
2022-10-22T03:42:08.120Z,1.42
2022-10-22T03:44:37.302Z,1.50
2022-10-22T03:47:04.525Z,1.37
2022-10-22T03:49:31.289Z,1.41
2022-10-22T03:52:14.001Z,1.42
2022-10-22T03:54:42.188Z,1.52
2022-10-22T03:57:10.365Z,1.54
2022-10-22T03:59:42.605Z,1.37
2022-10-22T04:02:10.846Z,1.35
2022-10-22T04:04:38.202Z,1.35
2022-10-22T04:07:06.723Z,1.21
2022-10-22T04:09:34.475Z,1.17
2022-10-22T04:12:01.461Z,1.11
2022-10-22T04:14:28.178Z,0.99
2022-10-22T04:16:54.865Z,1.15
2022-10-22T04:19:21.602Z,1.14
2022-10-22T04:21:48.242Z,1.31
2022-10-22T04:24:15.004Z,1.42
2022-10-22T04:26:41.768Z,1.33
2022-10-22T04:29:11.911Z,1.28
2022-10-22T04:31:41.867Z,1.30
2022-10-22T04:34:08.661Z,1.40
2022-10-22T04:36:35.347Z,1.37
2022-10-22T04:39:02.694Z,1.46
2022-10-22T04:41:32.628Z,1.40
2022-10-22T04:44:00.225Z,1.42
2022-10-22T04:46:29.838Z,1.41
2022-10-22T04:48:56.521Z,1.38
2022-10-22T04:51:25.468Z,1.42
2022-10-22T04:53:52.302Z,1.36
2022-10-22T04:56:24.989Z,1.33
2022-10-22T04:58:54.644Z,1.37
2022-10-22T05:01:24.090Z,1.38
2022-10-22T05:03:53.115Z,1.33
2022-10-22T05:06:27.349Z,1.41
2022-10-22T05:08:56.312Z,1.24
2022-10-22T05:11:28.675Z,1.28
2022-10-22T05:13:57.199Z,1.31
2022-10-22T05:16:24.723Z,1.38
2022-10-22T05:18:51.399Z,1.43
2022-10-22T05:21:20.549Z,1.51
2022-10-22T05:23:48.993Z,1.26
2022-10-22T05:26:19.085Z,1.36
2022-10-22T05:28:47.014Z,1.45
2022-10-22T05:31:14.437Z,1.42
2022-10-22T05:33:42.237Z,1.62
2022-10-22T05:36:12.603Z,1.38
2022-10-22T05:38:39.502Z,1.85
2022-10-22T05:41:15.375Z,2.00
2022-10-22T05:43:42.626Z,2.09
2022-10-22T05:46:18.766Z,2.19
2022-10-22T05:48:56.938Z,2.40
2022-10-22T05:51:24.752Z,2.40
2022-10-22T05:53:56.828Z,2.35
2022-10-22T05:56:24.497Z,2.57
2022-10-22T05:58:51.692Z,2.93
2022-10-22T06:01:24.302Z,3.09
2022-10-22T06:03:54.710Z,3.87
2022-10-22T06:06:34.300Z,5.37
2022-10-22T06:09:04.198Z,6.39
2022-10-22T06:11:34.263Z,7.40
2022-10-22T06:14:02.528Z,8.83
2022-10-22T06:16:30.102Z,9.97
2022-10-22T06:19:00.078Z,10.87
2022-10-22T06:21:26.749Z,11.26
2022-10-22T06:23:59.491Z,12.07
2022-10-22T06:26:26.529Z,11.54
2022-10-22T06:28:53.315Z,12.58
2022-10-22T06:31:20.105Z,11.73
2022-10-22T06:33:46.784Z,12.28
2022-10-22T06:36:16.634Z,12.97
2022-10-22T06:38:43.438Z,14.07
2022-10-22T06:41:13.412Z,14.20
2022-10-22T06:43:41.235Z,15.08
2022-10-22T06:46:09.938Z,15.81
2022-10-22T06:48:38.086Z,16.29
2022-10-22T06:51:11.128Z,15.08
2022-10-22T06:53:39.206Z,16.09
2022-10-22T06:56:11.281Z,15.07
2022-10-22T06:58:38.455Z,15.39
2022-10-22T07:01:13.474Z,16.94
2022-10-22T07:03:41.393Z,17.28
2022-10-22T07:06:10.934Z,18.42
2022-10-22T07:08:38.964Z,19.22
2022-10-22T07:11:17.346Z,17.22
2022-10-22T07:13:45.410Z,17.53
2022-10-22T07:16:12.735Z,19.61
2022-10-22T07:18:40.568Z,19.05
2022-10-22T07:21:08.868Z,19.69
2022-10-22T07:23:35.981Z,20.34
2022-10-22T07:26:03.582Z,19.11
2022-10-22T07:28:30.888Z,16.70
2022-10-22T07:30:57.579Z,17.58
2022-10-22T07:33:24.243Z,16.33
2022-10-22T07:35:50.928Z,18.88
2022-10-22T07:38:17.638Z,20.48
2022-10-22T07:40:44.345Z,21.26
2022-10-22T07:43:11.026Z,21.34
2022-10-22T07:45:37.723Z,22.12
2022-10-22T07:48:04.727Z,21.11
2022-10-22T07:50:31.398Z,22.01
2022-10-22T07:52:58.467Z,22.76
2022-10-22T07:55:25.862Z,20.93
2022-10-22T07:57:52.787Z,21.14
2022-10-22T08:00:23.038Z,22.21
2022-10-22T08:02:52.363Z,22.43
2022-10-22T08:05:19.486Z,22.41
2022-10-22T08:07:46.401Z,22.97
2022-10-22T08:10:13.723Z,21.86
2022-10-22T08:12:41.660Z,23.43
2022-10-22T08:15:09.955Z,22.50
2022-10-22T08:17:36.869Z,21.97
2022-10-22T08:20:04.430Z,21.77
2022-10-22T08:22:31.587Z,21.02
2022-10-22T08:24:59.164Z,21.15
2022-10-22T08:27:26.125Z,21.93
2022-10-22T08:29:52.772Z,21.52
2022-10-22T08:32:19.627Z,22.47
2022-10-22T08:34:46.292Z,24.14
2022-10-22T08:37:14.544Z,24.17
2022-10-22T08:39:41.689Z,23.52
2022-10-22T08:42:27.251Z,20.76
2022-10-22T08:45:09.135Z,24.13
2022-10-22T08:47:59.806Z,24.58
2022-10-22T08:51:02.041Z,25.78
2022-10-22T08:53:38.782Z,23.92
2022-10-22T08:56:05.675Z,24.49
2022-10-22T08:59:07.722Z,23.42
2022-10-22T09:01:40.187Z,23.98
2022-10-22T09:04:17.327Z,22.46
2022-10-22T09:06:44.520Z,24.24
2022-10-22T09:09:18.772Z,24.83
2022-10-22T09:11:48.922Z,24.39
2022-10-22T09:14:22.425Z,23.03
2022-10-22T09:17:20.972Z,24.75
2022-10-22T09:19:54.402Z,25.40
2022-10-22T09:23:09.351Z,24.87
2022-10-22T09:25:37.115Z,26.14
2022-10-22T09:28:04.613Z,24.94
2022-10-22T09:30:35.502Z,25.26
2022-10-22T09:33:12.583Z,24.37
2022-10-22T09:35:53.271Z,24.37
2022-10-22T09:38:28.390Z,23.28
2022-10-22T09:40:57.336Z,23.92
2022-10-22T09:43:24.403Z,24.67
2022-10-22T09:46:18.709Z,24.46
2022-10-22T09:48:51.994Z,25.39
2022-10-22T09:51:24.392Z,24.80
2022-10-22T09:54:00.142Z,24.99
2022-10-22T09:56:32.574Z,24.93
2022-10-22T09:58:59.298Z,25.32
2022-10-22T10:01:32.895Z,25.04
2022-10-22T10:04:11.551Z,24.66
2022-10-22T10:06:41.179Z,25.64
2022-10-22T10:09:19.559Z,25.31
2022-10-22T10:11:51.689Z,25.18
2022-10-22T10:14:29.067Z,25.88
2022-10-22T10:17:08.940Z,25.43
2022-10-22T10:19:48.132Z,25.28
2022-10-22T10:22:42.247Z,26.16
2022-10-22T10:25:14.916Z,26.26
2022-10-22T10:27:47.759Z,26.84
2022-10-22T10:30:18.841Z,27.10
2022-10-22T10:32:57.642Z,26.77
2022-10-22T10:35:28.557Z,26.76
2022-10-22T10:38:16.602Z,26.95
2022-10-22T10:41:09.326Z,27.61
2022-10-22T10:43:45.457Z,27.77
2022-10-22T10:46:20.627Z,27.83
2022-10-22T10:48:53.778Z,28.26
2022-10-22T10:51:23.222Z,28.54
2022-10-22T10:54:27.667Z,27.72
2022-10-22T10:57:17.958Z,28.22
2022-10-22T11:00:06.139Z,27.71
2022-10-22T11:02:48.058Z,27.66
2022-10-22T11:05:48.843Z,28.46
2022-10-22T11:08:30.078Z,27.44
2022-10-22T11:11:06.582Z,27.90
2022-10-22T11:14:00.466Z,28.24
2022-10-22T11:16:37.103Z,27.91
2022-10-22T11:19:22.634Z,28.26
2022-10-22T11:22:16.348Z,27.10
2022-10-22T11:25:04.029Z,28.14
2022-10-22T11:27:39.373Z,27.55
2022-10-22T11:30:20.707Z,28.12
2022-10-22T11:32:57.591Z,28.92
2022-10-22T11:35:27.478Z,28.83
2022-10-22T11:37:57.167Z,29.01
2022-10-22T11:40:29.901Z,28.51
2022-10-22T11:43:08.569Z,28.25
2022-10-22T11:45:38.038Z,28.91
2022-10-22T11:48:10.771Z,28.48
2022-10-22T11:50:50.950Z,27.40
2022-10-22T11:53:39.261Z,26.46
2022-10-22T11:56:13.153Z,26.64
2022-10-22T11:58:52.146Z,26.06
2022-10-22T12:01:39.819Z,25.94
2022-10-22T12:04:17.671Z,26.60
2022-10-22T12:07:30.438Z,26.53
2022-10-22T12:09:58.520Z,26.45
2022-10-22T12:12:25.200Z,26.13
2022-10-22T12:14:59.436Z,26.34
2022-10-22T12:17:28.701Z,25.99
2022-10-22T12:20:14.387Z,26.17
2022-10-22T12:22:42.240Z,25.47
2022-10-22T12:25:23.090Z,25.73
2022-10-22T12:27:55.614Z,25.39
2022-10-22T12:30:28.130Z,25.89
2022-10-22T12:32:57.411Z,25.51
2022-10-22T12:35:28.180Z,25.39
2022-10-22T12:37:57.455Z,24.93
2022-10-22T12:40:29.791Z,24.85
2022-10-22T12:43:11.620Z,24.47
2022-10-22T12:45:39.475Z,24.58
2022-10-22T12:48:14.609Z,24.56
2022-10-22T12:50:44.491Z,24.36
2022-10-22T12:53:26.390Z,24.46
2022-10-22T12:55:55.541Z,24.22
2022-10-22T12:58:34.145Z,23.89
2022-10-22T13:01:02.292Z,23.32
2022-10-22T13:04:03.628Z,23.20
2022-10-22T13:06:33.750Z,23.45
2022-10-22T13:09:00.621Z,23.45
2022-10-22T13:11:58.358Z,23.70
2022-10-22T13:14:24.994Z,23.79
2022-10-22T13:17:36.839Z,24.05
2022-10-22T13:20:22.586Z,24.00
2022-10-22T13:23:05.849Z,23.74
2022-10-22T13:25:35.132Z,23.72
2022-10-22T13:28:16.801Z,23.78
2022-10-22T13:30:54.293Z,23.63
2022-10-22T13:33:29.467Z,23.45
2022-10-22T13:35:57.039Z,23.38
2022-10-22T13:38:26.190Z,22.84
2022-10-22T13:40:53.239Z,23.06
2022-10-22T13:43:20.337Z,22.87
2022-10-22T13:45:48.862Z,22.88
2022-10-22T13:48:19.211Z,22.81
2022-10-22T13:50:55.652Z,22.82
2022-10-22T13:53:25.393Z,22.79
2022-10-22T13:55:52.109Z,22.57
2022-10-22T13:58:21.741Z,22.47
2022-10-22T14:00:55.810Z,22.42
2022-10-22T14:03:26.350Z,22.40
2022-10-22T14:05:53.062Z,22.44
2022-10-22T14:08:23.423Z,22.28
2022-10-22T14:10:50.201Z,22.10
2022-10-22T14:13:18.346Z,22.12
2022-10-22T14:15:48.051Z,22.04
2022-10-22T14:18:27.487Z,21.75
2022-10-22T14:20:57.468Z,21.88
2022-10-22T14:23:29.524Z,21.94
2022-10-22T14:25:57.769Z,21.74
2022-10-22T14:28:24.497Z,21.66
2022-10-22T14:30:52.366Z,21.45
2022-10-22T14:33:28.958Z,20.92
2022-10-22T14:36:02.077Z,20.75
2022-10-22T14:38:29.406Z,20.27
2022-10-22T14:40:56.751Z,20.18
2022-10-22T14:43:27.088Z,20.02
2022-10-22T14:45:54.452Z,20.10
2022-10-22T14:48:21.244Z,19.98
2022-10-22T14:50:49.182Z,19.44
2022-10-22T14:53:16.893Z,19.58
2022-10-22T14:55:47.243Z,19.06
2022-10-22T14:58:14.625Z,18.89
2022-10-22T15:00:42.733Z,18.76
2022-10-22T15:03:10.376Z,18.67
2022-10-22T15:05:44.328Z,18.51
2022-10-22T15:08:12.885Z,18.23
2022-10-22T15:10:40.252Z,18.01
2022-10-22T15:13:07.178Z,17.76
2022-10-22T15:15:36.636Z,17.24
2022-10-22T15:18:06.082Z,17.21
2022-10-22T15:20:32.890Z,17.06
2022-10-22T15:22:59.611Z,16.98
2022-10-22T15:25:26.378Z,16.86
2022-10-22T15:27:54.928Z,16.85
2022-10-22T15:30:26.351Z,16.75
2022-10-22T15:32:53.075Z,16.63
2022-10-22T15:35:19.722Z,16.20
2022-10-22T15:37:46.411Z,16.16
2022-10-22T15:40:13.036Z,16.14
2022-10-22T15:42:40.039Z,16.13
2022-10-22T15:45:07.460Z,15.97
2022-10-22T15:47:34.176Z,15.88
2022-10-22T15:50:01.015Z,15.65
2022-10-22T15:52:28.486Z,15.55
2022-10-22T15:54:55.548Z,15.42
2022-10-22T15:57:22.377Z,14.74
2022-10-22T15:59:50.190Z,14.92
2022-10-22T16:02:16.925Z,14.79
2022-10-22T16:04:43.695Z,14.77
2022-10-22T16:07:10.451Z,14.90
2022-10-22T16:09:37.186Z,14.82
2022-10-22T16:12:04.017Z,14.65
2022-10-22T16:14:30.702Z,14.64
2022-10-22T16:16:57.625Z,14.16
2022-10-22T16:19:24.777Z,14.06
2022-10-22T16:21:53.338Z,14.20
2022-10-22T16:24:21.118Z,14.18
2022-10-22T16:26:48.199Z,14.17
2022-10-22T16:29:15.087Z,13.99
2022-10-22T16:31:43.698Z,13.92
2022-10-22T16:34:10.651Z,13.77
2022-10-22T16:36:38.403Z,13.46
2022-10-22T16:39:06.051Z,13.39
2022-10-22T16:41:36.469Z,13.51
2022-10-22T16:44:06.710Z,13.38
2022-10-22T16:46:34.899Z,13.20
2022-10-22T16:49:01.619Z,13.18
2022-10-22T16:51:28.957Z,13.14
2022-10-22T16:53:57.531Z,13.13
2022-10-22T16:56:25.697Z,13.10
2022-10-22T16:58:55.366Z,12.89
2022-10-22T17:01:26.247Z,12.94
2022-10-22T17:03:54.853Z,12.74
2022-10-22T17:06:23.615Z,12.42
2022-10-22T17:08:50.429Z,12.39
2022-10-22T17:11:21.235Z,12.17
2022-10-22T17:13:51.305Z,12.08
2022-10-22T17:16:20.028Z,12.16
2022-10-22T17:18:47.148Z,12.23
2022-10-22T17:21:15.372Z,12.05
2022-10-22T17:23:42.821Z,11.92
2022-10-22T17:26:16.170Z,11.94
2022-10-22T17:28:43.478Z,11.94
2022-10-22T17:31:18.036Z,11.67
2022-10-22T17:33:45.619Z,11.55
2022-10-22T17:36:13.760Z,11.74
2022-10-22T17:38:42.162Z,11.82
2022-10-22T17:41:14.565Z,11.86
2022-10-22T17:43:41.585Z,11.73
2022-10-22T17:46:14.608Z,11.78
2022-10-22T17:48:41.217Z,11.48
2022-10-22T17:51:09.142Z,11.30
2022-10-22T17:53:36.201Z,11.35
2022-10-22T17:56:06.989Z,11.33
2022-10-22T17:58:33.705Z,11.44
2022-10-22T18:01:00.412Z,11.42
2022-10-22T18:03:28.014Z,11.36
2022-10-22T18:05:55.314Z,11.19
2022-10-22T18:08:24.180Z,11.07
2022-10-22T18:10:50.871Z,10.97
2022-10-22T18:13:17.633Z,11.10
2022-10-22T18:15:44.256Z,11.10
2022-10-22T18:18:11.147Z,11.00
2022-10-22T18:20:37.846Z,10.99
2022-10-22T18:23:04.733Z,10.95
2022-10-22T18:25:31.893Z,11.06
2022-10-22T18:27:58.627Z,10.94
2022-10-22T18:30:25.363Z,10.96
2022-10-22T18:32:52.083Z,10.89
2022-10-22T18:35:18.784Z,10.76
2022-10-22T18:37:45.488Z,10.57
2022-10-22T18:40:14.705Z,10.65
2022-10-22T18:42:42.173Z,10.68
2022-10-22T18:45:10.607Z,10.62
2022-10-22T18:47:40.554Z,10.39
2022-10-22T18:50:08.261Z,10.34
2022-10-22T18:52:35.300Z,10.34
2022-10-22T18:55:02.382Z,10.51
2022-10-22T18:57:29.025Z,10.14
2022-10-22T18:59:58.581Z,10.24
2022-10-22T19:02:26.613Z,10.35
2022-10-22T19:04:53.303Z,10.34
2022-10-22T19:07:19.974Z,10.15
2022-10-22T19:09:46.668Z,10.19
2022-10-22T19:12:15.092Z,10.03
2022-10-22T19:14:42.835Z,10.18
2022-10-22T19:17:09.699Z,10.24
2022-10-22T19:19:36.437Z,10.30
2022-10-22T19:22:03.193Z,10.15
2022-10-22T19:24:30.398Z,10.06
2022-10-22T19:26:57.099Z,10.07
2022-10-22T19:29:23.801Z,10.01
2022-10-22T19:31:53.227Z,9.81
2022-10-22T19:34:20.668Z,9.86
2022-10-22T19:36:47.587Z,9.91
2022-10-22T19:39:17.786Z,9.77
2022-10-22T19:41:44.789Z,9.59
2022-10-22T19:44:11.566Z,9.51
2022-10-22T19:46:38.858Z,9.53
2022-10-22T19:49:05.603Z,9.74
2022-10-22T19:51:34.470Z,9.69
2022-10-22T19:54:04.241Z,9.61
2022-10-22T19:56:31.535Z,9.57
2022-10-22T19:58:58.945Z,9.44
2022-10-22T20:01:26.534Z,9.44
2022-10-22T20:03:53.702Z,9.68
2022-10-22T20:06:21.925Z,9.68
2022-10-22T20:08:52.351Z,9.48
2022-10-22T20:11:24.675Z,9.57
2022-10-22T20:13:52.564Z,9.53
2022-10-22T20:16:23.288Z,9.35
2022-10-22T20:18:50.962Z,9.54
2022-10-22T20:21:19.410Z,9.55
2022-10-22T20:23:47.168Z,9.53
2022-10-22T20:26:13.924Z,9.55
2022-10-22T20:28:40.665Z,9.47
2022-10-22T20:31:12.287Z,9.55
2022-10-22T20:33:39.298Z,9.61
2022-10-22T20:36:09.263Z,9.64
2022-10-22T20:41:11.867Z,9.63
2022-10-22T20:43:38.559Z,9.53
2022-10-22T20:46:05.422Z,9.52
2022-10-22T20:48:32.590Z,9.51
2022-10-22T20:51:00.158Z,9.52
2022-10-22T20:53:27.815Z,9.27
2022-10-22T20:55:57.738Z,9.29
2022-10-22T20:58:26.841Z,9.38
2022-10-22T21:00:55.276Z,9.13
2022-10-22T21:03:22.512Z,9.30
2022-10-22T21:05:49.859Z,9.21
2022-10-22T21:08:17.706Z,9.16
2022-10-22T21:10:49.271Z,9.22
2022-10-22T21:13:16.891Z,9.20
2022-10-22T21:15:43.638Z,9.19
2022-10-22T21:18:10.384Z,9.18
2022-10-22T21:20:39.746Z,9.19
2022-10-22T21:23:06.813Z,9.21
2022-10-22T21:25:33.785Z,9.07
2022-10-22T21:28:00.691Z,9.15
2022-10-22T21:30:27.668Z,8.97
2022-10-22T21:32:56.867Z,9.07
2022-10-22T21:35:24.038Z,9.11
2022-10-22T21:37:50.870Z,9.15
2022-10-22T21:40:19.237Z,9.08
2022-10-22T21:42:45.945Z,9.16
2022-10-22T21:45:15.615Z,9.17
2022-10-22T21:47:44.600Z,8.96
2022-10-22T21:50:11.536Z,9.08
2022-10-22T21:52:38.469Z,8.75
2022-10-22T21:55:05.603Z,8.72
2022-10-22T21:57:32.671Z,8.79
2022-10-22T21:59:59.666Z,8.60
2022-10-22T22:02:28.713Z,8.74
2022-10-22T22:04:55.561Z,8.44
2022-10-22T22:07:22.415Z,8.45
2022-10-22T22:09:50.222Z,8.56
2022-10-22T22:12:17.393Z,8.58
2022-10-22T22:14:44.466Z,8.51
2022-10-22T22:17:11.214Z,8.35
2022-10-22T22:19:41.137Z,8.44
2022-10-22T22:22:07.817Z,8.39
2022-10-22T22:24:34.584Z,8.54
2022-10-22T22:27:01.758Z,8.47
2022-10-22T22:29:28.362Z,8.53
2022-10-22T22:31:56.242Z,8.51
2022-10-22T22:34:22.893Z,8.49
2022-10-22T22:36:49.877Z,8.27
2022-10-22T22:39:19.458Z,8.32
2022-10-22T22:41:46.985Z,8.26
2022-10-22T22:44:13.703Z,8.26
2022-10-22T22:46:40.679Z,8.18
2022-10-22T22:49:08.143Z,8.24
2022-10-22T22:51:34.939Z,8.15
2022-10-22T22:54:02.277Z,8.19
2022-10-22T22:56:31.186Z,8.19
2022-10-22T22:58:58.433Z,8.33
2022-10-22T23:01:32.407Z,8.43
2022-10-22T23:04:02.077Z,8.37
2022-10-22T23:06:32.015Z,8.44
2022-10-22T23:08:59.534Z,8.39
2022-10-22T23:11:27.366Z,8.32
2022-10-22T23:14:03.293Z,8.29
2022-10-22T23:16:32.478Z,8.18
2022-10-22T23:19:00.454Z,8.00
2022-10-22T23:21:37.868Z,8.03
2022-10-22T23:24:11.224Z,8.09
2022-10-22T23:26:41.906Z,8.06
2022-10-22T23:29:12.597Z,8.09
2022-10-22T23:31:39.436Z,7.99
2022-10-22T23:34:07.538Z,8.06
2022-10-22T23:36:36.243Z,8.12
2022-10-22T23:39:05.318Z,8.22
2022-10-22T23:41:32.056Z,8.16
2022-10-22T23:43:58.961Z,8.20
2022-10-22T23:46:25.636Z,8.15
2022-10-22T23:48:53.851Z,8.18
2022-10-22T23:51:21.790Z,8.22
2022-10-22T23:53:55.562Z,8.22
2022-10-22T23:56:22.247Z,8.22
2022-10-22T23:58:53.448Z,8.23
